sensor_id;sensor_type;location;lat;lon;timestamp;pressure;altitude;pressure_sealevel;temperature;humidity
72896;BME280;61036;53.224;6.554;2023-03-26T00:00:08;100556.19;;;8.41;100.00
72896;BME280;61036;53.224;6.554;2023-03-26T00:02:39;100556.41;;;8.38;100.00
72896;BME280;61036;53.224;6.554;2023-03-26T00:05:06;100558.88;;;8.54;100.00
72896;BME280;61036;53.224;6.554;2023-03-26T00:07:33;100567.25;;;8.37;100.00
72896;BME280;61036;53.224;6.554;2023-03-26T00:09:59;100567.34;;;8.35;100.00
72896;BME280;61036;53.224;6.554;2023-03-26T00:12:24;100563.25;;;8.30;100.00
72896;BME280;61036;53.224;6.554;2023-03-26T00:14:50;100576.16;;;8.37;100.00
72896;BME280;61036;53.224;6.554;2023-03-26T00:17:17;100569.69;;;8.27;100.00
72896;BME280;61036;53.224;6.554;2023-03-26T00:19:43;100570.47;;;8.29;100.00
72896;BME280;61036;53.224;6.554;2023-03-26T00:22:08;100571.97;;;8.33;100.00
72896;BME280;61036;53.224;6.554;2023-03-26T00:24:38;100568.19;;;8.36;100.00
72896;BME280;61036;53.224;6.554;2023-03-26T00:27:04;100572.38;;;8.14;100.00
72896;BME280;61036;53.224;6.554;2023-03-26T00:29:30;100571.63;;;7.99;100.00
72896;BME280;61036;53.224;6.554;2023-03-26T00:31:58;100569.69;;;8.01;100.00
72896;BME280;61036;53.224;6.554;2023-03-26T00:34:24;100573.84;;;7.80;100.00
72896;BME280;61036;53.224;6.554;2023-03-26T00:36:51;100569.75;;;7.74;100.00
72896;BME280;61036;53.224;6.554;2023-03-26T00:39:19;100579.94;;;7.82;100.00
72896;BME280;61036;53.224;6.554;2023-03-26T00:41:46;100575.69;;;7.79;100.00
72896;BME280;61036;53.224;6.554;2023-03-26T00:44:12;100584.78;;;7.77;100.00
72896;BME280;61036;53.224;6.554;2023-03-26T00:46:37;100584.00;;;7.62;100.00
72896;BME280;61036;53.224;6.554;2023-03-26T00:49:03;100592.50;;;7.82;100.00
72896;BME280;61036;53.224;6.554;2023-03-26T00:51:30;100595.13;;;7.83;100.00
72896;BME280;61036;53.224;6.554;2023-03-26T00:53:57;100600.25;;;7.73;100.00
72896;BME280;61036;53.224;6.554;2023-03-26T00:56:23;100596.38;;;7.77;100.00
72896;BME280;61036;53.224;6.554;2023-03-26T00:58:48;100600.56;;;7.82;100.00
72896;BME280;61036;53.224;6.554;2023-03-26T01:01:21;100592.56;;;7.94;100.00
72896;BME280;61036;53.224;6.554;2023-03-26T01:03:52;100596.94;;;7.83;100.00
72896;BME280;61036;53.224;6.554;2023-03-26T01:06:27;100585.72;;;7.76;100.00
72896;BME280;61036;53.224;6.554;2023-03-26T01:09:02;100586.91;;;7.72;100.00
72896;BME280;61036;53.224;6.554;2023-03-26T01:11:31;100589.19;;;7.78;100.00
72896;BME280;61036;53.224;6.554;2023-03-26T01:14:04;100591.66;;;7.81;100.00
72896;BME280;61036;53.224;6.554;2023-03-26T01:16:40;100597.44;;;7.75;100.00
72896;BME280;61036;53.224;6.554;2023-03-26T01:19:13;100598.44;;;7.87;100.00
72896;BME280;61036;53.224;6.554;2023-03-26T01:21:40;100597.66;;;7.72;100.00
72896;BME280;61036;53.224;6.554;2023-03-26T01:24:08;100586.50;;;7.78;100.00
72896;BME280;61036;53.224;6.554;2023-03-26T01:27:03;100582.63;;;7.82;100.00
72896;BME280;61036;53.224;6.554;2023-03-26T01:29:45;100587.47;;;7.77;100.00
72896;BME280;61036;53.224;6.554;2023-03-26T01:38:00;100586.44;;;7.52;100.00
72896;BME280;61036;53.224;6.554;2023-03-26T01:40:33;100577.81;;;7.47;100.00
72896;BME280;61036;53.224;6.554;2023-03-26T01:45:51;100578.72;;;7.33;100.00
72896;BME280;61036;53.224;6.554;2023-03-26T01:48:17;100571.81;;;7.44;100.00
72896;BME280;61036;53.224;6.554;2023-03-26T01:50:43;100580.88;;;7.55;100.00
72896;BME280;61036;53.224;6.554;2023-03-26T01:53:10;100571.56;;;7.61;100.00
72896;BME280;61036;53.224;6.554;2023-03-26T02:02:44;100559.66;;;7.78;100.00
72896;BME280;61036;53.224;6.554;2023-03-26T02:10:27;100549.75;;;7.66;100.00
72896;BME280;61036;53.224;6.554;2023-03-26T02:12:54;100552.88;;;7.72;100.00
72896;BME280;61036;53.224;6.554;2023-03-26T02:15:21;100550.72;;;7.65;100.00
72896;BME280;61036;53.224;6.554;2023-03-26T02:17:46;100552.44;;;7.66;100.00
72896;BME280;61036;53.224;6.554;2023-03-26T02:20:14;100540.78;;;7.79;100.00
72896;BME280;61036;53.224;6.554;2023-03-26T02:22:43;100542.13;;;7.72;100.00
72896;BME280;61036;53.224;6.554;2023-03-26T02:25:13;100533.59;;;7.80;100.00
72896;BME280;61036;53.224;6.554;2023-03-26T02:27:39;100535.03;;;7.59;100.00
72896;BME280;61036;53.224;6.554;2023-03-26T02:30:11;100533.66;;;7.78;100.00
72896;BME280;61036;53.224;6.554;2023-03-26T02:32:37;100532.25;;;7.60;100.00
72896;BME280;61036;53.224;6.554;2023-03-26T02:35:04;100545.63;;;7.47;100.00
72896;BME280;61036;53.224;6.554;2023-03-26T02:37:31;100538.03;;;7.67;100.00
72896;BME280;61036;53.224;6.554;2023-03-26T02:40:06;100539.94;;;7.25;100.00
72896;BME280;61036;53.224;6.554;2023-03-26T02:42:37;100544.66;;;7.48;100.00
72896;BME280;61036;53.224;6.554;2023-03-26T02:45:03;100534.91;;;7.60;100.00
72896;BME280;61036;53.224;6.554;2023-03-26T02:47:50;100535.56;;;7.64;100.00
72896;BME280;61036;53.224;6.554;2023-03-26T02:50:41;100534.72;;;7.63;100.00
72896;BME280;61036;53.224;6.554;2023-03-26T02:53:25;100520.94;;;7.55;100.00
72896;BME280;61036;53.224;6.554;2023-03-26T02:55:59;100524.41;;;7.57;100.00
72896;BME280;61036;53.224;6.554;2023-03-26T02:58:29;100514.78;;;7.67;100.00
72896;BME280;61036;53.224;6.554;2023-03-26T03:00:55;100521.50;;;7.60;100.00
72896;BME280;61036;53.224;6.554;2023-03-26T03:03:33;100531.88;;;7.52;100.00
72896;BME280;61036;53.224;6.554;2023-03-26T03:06:24;100517.66;;;7.64;100.00
72896;BME280;61036;53.224;6.554;2023-03-26T03:08:54;100514.22;;;7.62;100.00
72896;BME280;61036;53.224;6.554;2023-03-26T03:11:35;100510.78;;;7.73;100.00
72896;BME280;61036;53.224;6.554;2023-03-26T03:14:03;100511.88;;;7.70;100.00
72896;BME280;61036;53.224;6.554;2023-03-26T03:16:30;100506.75;;;7.80;100.00
72896;BME280;61036;53.224;6.554;2023-03-26T03:19:02;100504.47;;;7.61;100.00
72896;BME280;61036;53.224;6.554;2023-03-26T03:21:38;100501.78;;;7.61;100.00
72896;BME280;61036;53.224;6.554;2023-03-26T03:24:05;100508.72;;;7.64;100.00
72896;BME280;61036;53.224;6.554;2023-03-26T03:26:38;100513.78;;;7.55;100.00
72896;BME280;61036;53.224;6.554;2023-03-26T03:29:25;100506.47;;;7.57;100.00
72896;BME280;61036;53.224;6.554;2023-03-26T03:31:51;100505.75;;;7.68;100.00
72896;BME280;61036;53.224;6.554;2023-03-26T03:34:37;100506.41;;;7.72;100.00
72896;BME280;61036;53.224;6.554;2023-03-26T03:37:04;100511.63;;;7.61;100.00
72896;BME280;61036;53.224;6.554;2023-03-26T03:39:38;100502.47;;;7.38;100.00
72896;BME280;61036;53.224;6.554;2023-03-26T03:42:04;100501.66;;;7.63;100.00
72896;BME280;61036;53.224;6.554;2023-03-26T03:44:30;100499.81;;;7.50;100.00
72896;BME280;61036;53.224;6.554;2023-03-26T03:46:56;100487.22;;;7.38;100.00
72896;BME280;61036;53.224;6.554;2023-03-26T03:49:22;100487.63;;;7.32;100.00
72896;BME280;61036;53.224;6.554;2023-03-26T03:51:47;100496.19;;;7.24;100.00
72896;BME280;61036;53.224;6.554;2023-03-26T03:54:35;100493.72;;;7.21;100.00
72896;BME280;61036;53.224;6.554;2023-03-26T03:57:09;100500.13;;;7.19;100.00
72896;BME280;61036;53.224;6.554;2023-03-26T03:59:49;100508.09;;;7.20;100.00
72896;BME280;61036;53.224;6.554;2023-03-26T04:02:17;100500.44;;;7.14;100.00
72896;BME280;61036;53.224;6.554;2023-03-26T04:04:55;100493.56;;;7.37;100.00
72896;BME280;61036;53.224;6.554;2023-03-26T04:07:23;100493.34;;;7.40;100.00
72896;BME280;61036;53.224;6.554;2023-03-26T04:10:05;100494.94;;;7.43;100.00
72896;BME280;61036;53.224;6.554;2023-03-26T04:13:03;100489.50;;;7.44;100.00
72896;BME280;61036;53.224;6.554;2023-03-26T04:15:55;100491.41;;;7.42;100.00
72896;BME280;61036;53.224;6.554;2023-03-26T04:18:21;100491.31;;;7.44;100.00
72896;BME280;61036;53.224;6.554;2023-03-26T04:20:48;100493.16;;;7.43;100.00
72896;BME280;61036;53.224;6.554;2023-03-26T04:23:25;100497.56;;;7.57;100.00
72896;BME280;61036;53.224;6.554;2023-03-26T04:26:01;100489.44;;;7.59;100.00
72896;BME280;61036;53.224;6.554;2023-03-26T04:28:53;100503.69;;;7.59;100.00
72896;BME280;61036;53.224;6.554;2023-03-26T04:31:25;100498.59;;;7.42;100.00
72896;BME280;61036;53.224;6.554;2023-03-26T04:34:19;100492.81;;;7.48;100.00
72896;BME280;61036;53.224;6.554;2023-03-26T04:36:55;100495.28;;;7.38;100.00
72896;BME280;61036;53.224;6.554;2023-03-26T04:39:26;100493.44;;;7.39;100.00
72896;BME280;61036;53.224;6.554;2023-03-26T04:42:12;100489.78;;;7.40;100.00
72896;BME280;61036;53.224;6.554;2023-03-26T04:44:51;100497.19;;;7.36;100.00
72896;BME280;61036;53.224;6.554;2023-03-26T04:47:17;100500.59;;;7.25;100.00
72896;BME280;61036;53.224;6.554;2023-03-26T04:49:45;100496.94;;;7.26;100.00
72896;BME280;61036;53.224;6.554;2023-03-26T04:52:13;100494.22;;;7.41;100.00
72896;BME280;61036;53.224;6.554;2023-03-26T04:54:58;100497.09;;;7.38;100.00
72896;BME280;61036;53.224;6.554;2023-03-26T04:59:57;100498.56;;;7.29;100.00
72896;BME280;61036;53.224;6.554;2023-03-26T05:02:24;100487.72;;;7.30;100.00
72896;BME280;61036;53.224;6.554;2023-03-26T05:04:52;100490.00;;;7.37;100.00
72896;BME280;61036;53.224;6.554;2023-03-26T05:07:20;100491.00;;;7.48;100.00
72896;BME280;61036;53.224;6.554;2023-03-26T05:09:54;100483.78;;;7.36;100.00
72896;BME280;61036;53.224;6.554;2023-03-26T05:12:30;100482.69;;;7.26;100.00
72896;BME280;61036;53.224;6.554;2023-03-26T05:15:03;100479.88;;;7.27;100.00
72896;BME280;61036;53.224;6.554;2023-03-26T05:18:04;100477.81;;;7.18;100.00
72896;BME280;61036;53.224;6.554;2023-03-26T05:20:37;100492.00;;;7.20;100.00
72896;BME280;61036;53.224;6.554;2023-03-26T05:23:05;100486.72;;;7.19;100.00
72896;BME280;61036;53.224;6.554;2023-03-26T05:25:35;100484.94;;;7.19;100.00
72896;BME280;61036;53.224;6.554;2023-03-26T05:28:03;100483.50;;;7.14;100.00
72896;BME280;61036;53.224;6.554;2023-03-26T05:30:39;100474.69;;;7.12;100.00
72896;BME280;61036;53.224;6.554;2023-03-26T05:33:04;100476.31;;;7.14;100.00
72896;BME280;61036;53.224;6.554;2023-03-26T05:35:41;100480.47;;;7.05;100.00
72896;BME280;61036;53.224;6.554;2023-03-26T05:38:08;100485.81;;;7.05;100.00
72896;BME280;61036;53.224;6.554;2023-03-26T05:40:33;100483.16;;;7.05;100.00
72896;BME280;61036;53.224;6.554;2023-03-26T05:43:02;100489.72;;;7.14;100.00
72896;BME280;61036;53.224;6.554;2023-03-26T05:45:37;100480.50;;;7.18;100.00
72896;BME280;61036;53.224;6.554;2023-03-26T05:48:23;100472.81;;;7.26;100.00
72896;BME280;61036;53.224;6.554;2023-03-26T05:50:51;100467.53;;;7.25;100.00
72896;BME280;61036;53.224;6.554;2023-03-26T05:53:19;100463.38;;;7.33;100.00
72896;BME280;61036;53.224;6.554;2023-03-26T05:56:04;100466.06;;;7.33;100.00
72896;BME280;61036;53.224;6.554;2023-03-26T05:58:48;100470.56;;;7.33;100.00
72896;BME280;61036;53.224;6.554;2023-03-26T06:01:45;100467.47;;;7.39;100.00
72896;BME280;61036;53.224;6.554;2023-03-26T06:04:14;100463.16;;;7.37;100.00
72896;BME280;61036;53.224;6.554;2023-03-26T06:06:48;100462.75;;;7.43;100.00
72896;BME280;61036;53.224;6.554;2023-03-26T06:09:14;100462.75;;;7.43;100.00
72896;BME280;61036;53.224;6.554;2023-03-26T06:11:41;100461.69;;;7.45;100.00
72896;BME280;61036;53.224;6.554;2023-03-26T06:14:07;100460.06;;;7.43;100.00
72896;BME280;61036;53.224;6.554;2023-03-26T06:16:36;100462.25;;;7.50;100.00
72896;BME280;61036;53.224;6.554;2023-03-26T06:19:18;100457.66;;;7.65;100.00
72896;BME280;61036;53.224;6.554;2023-03-26T06:22:09;100457.22;;;7.59;100.00
72896;BME280;61036;53.224;6.554;2023-03-26T06:24:54;100457.44;;;7.55;100.00
72896;BME280;61036;53.224;6.554;2023-03-26T06:27:39;100445.63;;;7.71;100.00
72896;BME280;61036;53.224;6.554;2023-03-26T06:30:33;100442.53;;;7.77;100.00
72896;BME280;61036;53.224;6.554;2023-03-26T06:33:06;100448.00;;;7.88;100.00
72896;BME280;61036;53.224;6.554;2023-03-26T06:35:39;100448.53;;;7.93;100.00
72896;BME280;61036;53.224;6.554;2023-03-26T06:38:05;100454.66;;;8.08;100.00
72896;BME280;61036;53.224;6.554;2023-03-26T06:40:33;100454.34;;;8.13;100.00
72896;BME280;61036;53.224;6.554;2023-03-26T06:43:31;100443.38;;;8.16;100.00
72896;BME280;61036;53.224;6.554;2023-03-26T06:46:26;100448.53;;;7.68;100.00
72896;BME280;61036;53.224;6.554;2023-03-26T06:49:10;100453.25;;;8.02;100.00
72896;BME280;61036;53.224;6.554;2023-03-26T06:51:38;100454.22;;;7.76;100.00
72896;BME280;61036;53.224;6.554;2023-03-26T06:54:24;100459.06;;;7.96;100.00
72896;BME280;61036;53.224;6.554;2023-03-26T06:56:52;100457.00;;;8.00;100.00
72896;BME280;61036;53.224;6.554;2023-03-26T06:59:37;100462.38;;;7.87;100.00
72896;BME280;61036;53.224;6.554;2023-03-26T07:02:21;100461.53;;;7.99;100.00
72896;BME280;61036;53.224;6.554;2023-03-26T07:05:05;100459.38;;;8.17;100.00
72896;BME280;61036;53.224;6.554;2023-03-26T07:07:51;100462.69;;;8.08;100.00
72896;BME280;61036;53.224;6.554;2023-03-26T07:10:34;100463.25;;;8.13;100.00
72896;BME280;61036;53.224;6.554;2023-03-26T07:13:26;100457.00;;;8.38;100.00
72896;BME280;61036;53.224;6.554;2023-03-26T07:16:18;100460.44;;;8.40;100.00
72896;BME280;61036;53.224;6.554;2023-03-26T07:19:10;100450.44;;;8.30;100.00
72896;BME280;61036;53.224;6.554;2023-03-26T07:21:38;100453.88;;;8.32;100.00
72896;BME280;61036;53.224;6.554;2023-03-26T07:24:15;100451.00;;;8.22;100.00
72896;BME280;61036;53.224;6.554;2023-03-26T07:29:43;100448.94;;;8.75;100.00
72896;BME280;61036;53.224;6.554;2023-03-26T07:41:52;100445.25;;;9.13;100.00
72896;BME280;61036;53.224;6.554;2023-03-26T07:48:20;100438.50;;;9.43;100.00
72896;BME280;61036;53.224;6.554;2023-03-26T07:51:10;100438.50;;;10.00;100.00
72896;BME280;61036;53.224;6.554;2023-03-26T07:53:48;100435.97;;;10.33;100.00
72896;BME280;61036;53.224;6.554;2023-03-26T07:56:37;100429.16;;;12.20;100.00
72896;BME280;61036;53.224;6.554;2023-03-26T08:08:21;100419.50;;;13.94;100.00
72896;BME280;61036;53.224;6.554;2023-03-26T08:29:43;100427.16;;;12.53;97.64
72896;BME280;61036;53.224;6.554;2023-03-26T08:32:16;100431.69;;;11.91;100.00
72896;BME280;61036;53.224;6.554;2023-03-26T08:34:43;100426.09;;;16.60;86.33
72896;BME280;61036;53.224;6.554;2023-03-26T08:37:08;100434.25;;;16.52;77.23
72896;BME280;61036;53.224;6.554;2023-03-26T08:39:34;100435.81;;;15.76;74.07
72896;BME280;61036;53.224;6.554;2023-03-26T08:53:48;100448.75;;;11.29;100.00
72896;BME280;61036;53.224;6.554;2023-03-26T09:05:16;100434.28;;;11.93;100.00
72896;BME280;61036;53.224;6.554;2023-03-26T09:10:45;100439.03;;;12.31;100.00
72896;BME280;61036;53.224;6.554;2023-03-26T09:33:18;100452.94;;;10.89;100.00
72896;BME280;61036;53.224;6.554;2023-03-26T09:35:53;100447.97;;;11.80;100.00
72896;BME280;61036;53.224;6.554;2023-03-26T09:38:41;100443.09;;;11.74;100.00
72896;BME280;61036;53.224;6.554;2023-03-26T09:41:56;100444.66;;;11.76;100.00
72896;BME280;61036;53.224;6.554;2023-03-26T09:44:35;100458.50;;;11.41;100.00
72896;BME280;61036;53.224;6.554;2023-03-26T09:53:01;100465.09;;;10.61;100.00
72896;BME280;61036;53.224;6.554;2023-03-26T09:55:46;100471.38;;;10.39;100.00
72896;BME280;61036;53.224;6.554;2023-03-26T10:01:16;100474.53;;;9.29;100.00
72896;BME280;61036;53.224;6.554;2023-03-26T10:03:56;100475.59;;;10.19;100.00
72896;BME280;61036;53.224;6.554;2023-03-26T10:06:43;100475.53;;;10.32;100.00
72896;BME280;61036;53.224;6.554;2023-03-26T10:28:31;100481.53;;;10.36;100.00
72896;BME280;61036;53.224;6.554;2023-03-26T10:47:33;100487.53;;;10.39;100.00
72896;BME280;61036;53.224;6.554;2023-03-26T10:55:43;100488.22;;;11.30;99.49
72896;BME280;61036;53.224;6.554;2023-03-26T11:00:46;100487.41;;;11.50;99.55
72896;BME280;61036;53.224;6.554;2023-03-26T11:03:48;100493.88;;;11.59;100.00
72896;BME280;61036;53.224;6.554;2023-03-26T11:09:39;100501.59;;;10.99;99.09
72896;BME280;61036;53.224;6.554;2023-03-26T11:15:06;100502.00;;;10.38;100.00
72896;BME280;61036;53.224;6.554;2023-03-26T11:17:49;100508.56;;;9.65;100.00
72896;BME280;61036;53.224;6.554;2023-03-26T11:23:25;100502.72;;;10.74;100.00
72896;BME280;61036;53.224;6.554;2023-03-26T11:26:15;100515.47;;;10.49;100.00
72896;BME280;61036;53.224;6.554;2023-03-26T11:29:09;100505.19;;;10.43;100.00
72896;BME280;61036;53.224;6.554;2023-03-26T11:34:14;100503.53;;;10.18;100.00
72896;BME280;61036;53.224;6.554;2023-03-26T11:36:45;100517.13;;;10.17;100.00
72896;BME280;61036;53.224;6.554;2023-03-26T11:39:18;100514.59;;;10.38;100.00
72896;BME280;61036;53.224;6.554;2023-03-26T11:41:47;100514.00;;;10.34;98.36
72896;BME280;61036;53.224;6.554;2023-03-26T11:44:32;100524.03;;;9.85;100.00
72896;BME280;61036;53.224;6.554;2023-03-26T11:47:05;100515.97;;;10.43;99.87
72896;BME280;61036;53.224;6.554;2023-03-26T11:49:35;100519.47;;;11.11;96.92
72896;BME280;61036;53.224;6.554;2023-03-26T11:52:01;100530.00;;;11.14;93.64
72896;BME280;61036;53.224;6.554;2023-03-26T11:54:28;100515.81;;;10.90;97.98
72896;BME280;61036;53.224;6.554;2023-03-26T11:56:59;100521.66;;;11.17;91.99
72896;BME280;61036;53.224;6.554;2023-03-26T11:59:32;100525.03;;;11.63;93.28
72896;BME280;61036;53.224;6.554;2023-03-26T12:05:28;100526.44;;;11.14;92.25
72896;BME280;61036;53.224;6.554;2023-03-26T12:10:26;100533.09;;;10.87;94.35
72896;BME280;61036;53.224;6.554;2023-03-26T12:12:57;100522.91;;;10.91;96.32
72896;BME280;61036;53.224;6.554;2023-03-26T12:15:23;100526.88;;;10.75;98.99
72896;BME280;61036;53.224;6.554;2023-03-26T12:17:52;100522.06;;;10.68;95.60
72896;BME280;61036;53.224;6.554;2023-03-26T12:22:53;100533.13;;;10.42;96.64
72896;BME280;61036;53.224;6.554;2023-03-26T12:25:25;100542.03;;;10.32;94.87
72896;BME280;61036;53.224;6.554;2023-03-26T12:30:38;100558.44;;;10.17;100.00
72896;BME280;61036;53.224;6.554;2023-03-26T12:33:24;100547.00;;;10.71;96.42
72896;BME280;61036;53.224;6.554;2023-03-26T12:35:51;100540.97;;;10.45;97.81
72896;BME280;61036;53.224;6.554;2023-03-26T12:38:36;100540.56;;;10.95;96.98
72896;BME280;61036;53.224;6.554;2023-03-26T12:41:17;100544.19;;;11.28;91.23
72896;BME280;61036;53.224;6.554;2023-03-26T12:43:53;100546.63;;;10.53;93.22
72896;BME280;61036;53.224;6.554;2023-03-26T12:46:32;100545.50;;;10.67;96.56
72896;BME280;61036;53.224;6.554;2023-03-26T12:49:00;100548.94;;;10.69;94.40
72896;BME280;61036;53.224;6.554;2023-03-26T12:54:51;100560.22;;;10.63;91.78
72896;BME280;61036;53.224;6.554;2023-03-26T12:57:32;100562.28;;;10.48;97.41
72896;BME280;61036;53.224;6.554;2023-03-26T13:17:29;100573.81;;;10.04;100.00
72896;BME280;61036;53.224;6.554;2023-03-26T13:25:03;100578.97;;;10.07;100.00
72896;BME280;61036;53.224;6.554;2023-03-26T13:30:31;100582.44;;;10.20;100.00
72896;BME280;61036;53.224;6.554;2023-03-26T13:33:25;100583.53;;;10.18;100.00
72896;BME280;61036;53.224;6.554;2023-03-26T13:36:15;100582.13;;;10.01;100.00
72896;BME280;61036;53.224;6.554;2023-03-26T13:47:17;100593.09;;;9.87;100.00
72896;BME280;61036;53.224;6.554;2023-03-26T13:49:51;100589.97;;;9.69;98.04
72896;BME280;61036;53.224;6.554;2023-03-26T13:52:25;100594.09;;;9.61;100.00
72896;BME280;61036;53.224;6.554;2023-03-26T13:57:59;100583.59;;;9.94;98.69
72896;BME280;61036;53.224;6.554;2023-03-26T14:03:15;100594.06;;;9.85;100.00
72896;BME280;61036;53.224;6.554;2023-03-26T14:05:46;100595.50;;;10.14;100.00
72896;BME280;61036;53.224;6.554;2023-03-26T14:08:22;100606.22;;;9.67;100.00
72896;BME280;61036;53.224;6.554;2023-03-26T14:11:00;100613.16;;;9.34;100.00
72896;BME280;61036;53.224;6.554;2023-03-26T14:16:35;100616.75;;;9.22;97.14
72896;BME280;61036;53.224;6.554;2023-03-26T14:19:21;100604.59;;;9.16;97.92
72896;BME280;61036;53.224;6.554;2023-03-26T14:25:06;100602.75;;;9.54;98.25
72896;BME280;61036;53.224;6.554;2023-03-26T14:30:57;100620.53;;;9.07;100.00
72896;BME280;61036;53.224;6.554;2023-03-26T14:42:00;100624.53;;;9.38;98.30
72896;BME280;61036;53.224;6.554;2023-03-26T14:44:37;100632.81;;;9.48;100.00
72896;BME280;61036;53.224;6.554;2023-03-26T14:47:22;100636.31;;;9.61;100.00
72896;BME280;61036;53.224;6.554;2023-03-26T14:52:53;100645.28;;;9.12;100.00
72896;BME280;61036;53.224;6.554;2023-03-26T15:19:05;100678.88;;;8.68;100.00
72896;BME280;61036;53.224;6.554;2023-03-26T15:27:49;100676.09;;;8.82;100.00
72896;BME280;61036;53.224;6.554;2023-03-26T15:36:27;100684.88;;;8.59;100.00
72896;BME280;61036;53.224;6.554;2023-03-26T15:41:50;100696.41;;;8.61;100.00
72896;BME280;61036;53.224;6.554;2023-03-26T15:47:37;100706.19;;;9.00;100.00
72896;BME280;61036;53.224;6.554;2023-03-26T16:00:39;100728.09;;;8.43;100.00
72896;BME280;61036;53.224;6.554;2023-03-26T16:17:02;100745.84;;;8.45;100.00
72896;BME280;61036;53.224;6.554;2023-03-26T16:22:06;100751.41;;;8.15;100.00
72896;BME280;61036;53.224;6.554;2023-03-26T16:24:34;100758.94;;;7.96;100.00
72896;BME280;61036;53.224;6.554;2023-03-26T16:32:27;100766.28;;;7.79;100.00
72896;BME280;61036;53.224;6.554;2023-03-26T17:04:15;100817.50;;;7.03;100.00
72896;BME280;61036;53.224;6.554;2023-03-26T17:26:20;100867.28;;;6.93;100.00
72896;BME280;61036;53.224;6.554;2023-03-26T17:29:05;100871.47;;;6.83;100.00
72896;BME280;61036;53.224;6.554;2023-03-26T17:32:05;100873.63;;;6.92;100.00
72896;BME280;61036;53.224;6.554;2023-03-26T17:37:04;100878.25;;;6.74;100.00
72896;BME280;61036;53.224;6.554;2023-03-26T17:47:48;100892.84;;;6.69;100.00
72896;BME280;61036;53.224;6.554;2023-03-26T17:50:20;100903.31;;;6.57;100.00
72896;BME280;61036;53.224;6.554;2023-03-26T17:55:25;100907.91;;;6.55;100.00
72896;BME280;61036;53.224;6.554;2023-03-26T17:58:00;100909.56;;;6.42;100.00
72896;BME280;61036;53.224;6.554;2023-03-26T18:00:30;100921.66;;;6.33;100.00
72896;BME280;61036;53.224;6.554;2023-03-26T18:03:00;100934.94;;;6.19;100.00
72896;BME280;61036;53.224;6.554;2023-03-26T18:05:28;100936.34;;;6.26;100.00
72896;BME280;61036;53.224;6.554;2023-03-26T18:18:50;100956.03;;;6.25;100.00
72896;BME280;61036;53.224;6.554;2023-03-26T18:21:24;100960.34;;;6.12;100.00
72896;BME280;61036;53.224;6.554;2023-03-26T18:23:51;100966.69;;;5.93;100.00
72896;BME280;61036;53.224;6.554;2023-03-26T18:26:18;100969.56;;;5.89;100.00
72896;BME280;61036;53.224;6.554;2023-03-26T18:29:08;100970.84;;;5.99;100.00
72896;BME280;61036;53.224;6.554;2023-03-26T18:31:35;100968.50;;;5.76;100.00
72896;BME280;61036;53.224;6.554;2023-03-26T18:34:12;100982.19;;;5.87;100.00
72896;BME280;61036;53.224;6.554;2023-03-26T18:36:37;100974.06;;;5.71;100.00
72896;BME280;61036;53.224;6.554;2023-03-26T18:39:03;100976.84;;;5.69;100.00
72896;BME280;61036;53.224;6.554;2023-03-26T18:41:36;100989.75;;;5.79;100.00
72896;BME280;61036;53.224;6.554;2023-03-26T18:44:12;100996.81;;;5.80;100.00
72896;BME280;61036;53.224;6.554;2023-03-26T18:46:39;100997.22;;;5.72;100.00
72896;BME280;61036;53.224;6.554;2023-03-26T18:49:05;100993.53;;;5.57;100.00
72896;BME280;61036;53.224;6.554;2023-03-26T18:51:31;100995.72;;;5.49;100.00
72896;BME280;61036;53.224;6.554;2023-03-26T18:53:59;101002.31;;;5.59;100.00
72896;BME280;61036;53.224;6.554;2023-03-26T18:59:00;101001.56;;;5.40;100.00
72896;BME280;61036;53.224;6.554;2023-03-26T19:01:28;101006.09;;;5.38;100.00
72896;BME280;61036;53.224;6.554;2023-03-26T19:04:00;101013.38;;;5.36;100.00
72896;BME280;61036;53.224;6.554;2023-03-26T19:06:28;101006.97;;;5.38;100.00
72896;BME280;61036;53.224;6.554;2023-03-26T19:08:55;101011.53;;;5.36;100.00
72896;BME280;61036;53.224;6.554;2023-03-26T19:11:29;101015.31;;;5.49;100.00
72896;BME280;61036;53.224;6.554;2023-03-26T19:14:15;101017.50;;;5.41;100.00
72896;BME280;61036;53.224;6.554;2023-03-26T19:16:45;101015.25;;;5.34;100.00
72896;BME280;61036;53.224;6.554;2023-03-26T19:19:16;101018.56;;;5.39;100.00
72896;BME280;61036;53.224;6.554;2023-03-26T19:21:43;101023.31;;;5.32;100.00
72896;BME280;61036;53.224;6.554;2023-03-26T19:24:09;101026.72;;;5.36;100.00
72896;BME280;61036;53.224;6.554;2023-03-26T19:26:36;101024.97;;;5.35;100.00
72896;BME280;61036;53.224;6.554;2023-03-26T19:29:02;101035.84;;;5.32;100.00
72896;BME280;61036;53.224;6.554;2023-03-26T19:31:34;101031.03;;;5.38;100.00
72896;BME280;61036;53.224;6.554;2023-03-26T19:36:57;101031.28;;;5.34;100.00
72896;BME280;61036;53.224;6.554;2023-03-26T19:39:52;101038.34;;;5.35;100.00
72896;BME280;61036;53.224;6.554;2023-03-26T19:42:27;101042.44;;;5.24;100.00
72896;BME280;61036;53.224;6.554;2023-03-26T19:44:57;101038.25;;;5.19;100.00
72896;BME280;61036;53.224;6.554;2023-03-26T19:47:38;101043.50;;;5.20;100.00
72896;BME280;61036;53.224;6.554;2023-03-26T19:50:20;101047.94;;;5.21;100.00
72896;BME280;61036;53.224;6.554;2023-03-26T19:53:18;101055.97;;;5.21;100.00
72896;BME280;61036;53.224;6.554;2023-03-26T19:55:57;101053.44;;;5.18;100.00
72896;BME280;61036;53.224;6.554;2023-03-26T19:58:26;101057.91;;;5.18;100.00
72896;BME280;61036;53.224;6.554;2023-03-26T20:00:52;101056.47;;;5.11;100.00
72896;BME280;61036;53.224;6.554;2023-03-26T20:03:36;101066.66;;;5.21;100.00
72896;BME280;61036;53.224;6.554;2023-03-26T20:06:02;101073.38;;;5.11;100.00
72896;BME280;61036;53.224;6.554;2023-03-26T20:08:27;101072.97;;;5.01;100.00